createdAt,value
2022-09-14T00:00:26.060Z,6
2022-09-14T00:01:27.085Z,4
2022-09-14T00:02:26.200Z,4
2022-09-14T00:03:26.102Z,4
2022-09-14T00:04:26.063Z,6
2022-09-14T00:05:26.083Z,6
2022-09-14T00:06:26.061Z,4
2022-09-14T00:07:26.069Z,5
2022-09-14T00:08:26.073Z,6
2022-09-14T00:09:26.069Z,5
2022-09-14T00:10:26.063Z,5
2022-09-14T00:11:26.079Z,5
2022-09-14T00:12:26.077Z,3
2022-09-14T00:13:26.073Z,6
2022-09-14T00:15:26.069Z,8
2022-09-14T00:17:26.073Z,6
2022-09-14T00:18:26.078Z,6
2022-09-14T00:20:26.073Z,6
2022-09-14T00:22:26.078Z,10
2022-09-14T00:23:26.080Z,10
2022-09-14T00:27:26.079Z,5
2022-09-14T00:28:26.080Z,8
2022-09-14T00:29:26.083Z,4
2022-09-14T00:30:26.077Z,4
2022-09-14T00:31:26.129Z,4
2022-09-14T00:32:26.084Z,5
2022-09-14T00:33:26.084Z,5
2022-09-14T00:34:26.084Z,5
2022-09-14T00:36:26.102Z,5
2022-09-14T00:38:26.090Z,5
2022-09-14T00:39:27.235Z,4
2022-09-14T00:40:26.151Z,6
2022-09-14T00:41:26.090Z,6
2022-09-14T00:43:26.089Z,6
2022-09-14T00:44:26.092Z,3
2022-09-14T00:45:26.144Z,6
2022-09-14T00:46:26.084Z,6
2022-09-14T00:49:26.092Z,6
2022-09-14T00:50:26.091Z,6
2022-09-14T00:51:26.092Z,6
2022-09-14T00:54:26.090Z,6
2022-09-14T00:55:26.094Z,5
2022-09-14T00:56:26.101Z,7
2022-09-14T00:59:26.095Z,5
2022-09-14T01:00:26.148Z,6
2022-09-14T01:01:26.232Z,6
2022-09-14T01:02:26.176Z,6
2022-09-14T01:04:26.094Z,6
2022-09-14T01:05:26.098Z,6
2022-09-14T01:06:26.101Z,5
2022-09-14T01:07:26.127Z,7
2022-09-14T01:09:26.096Z,5
2022-09-14T01:10:26.096Z,6
2022-09-14T01:11:26.125Z,4
2022-09-14T01:12:26.108Z,6
2022-09-14T01:13:26.104Z,6
2022-09-14T01:16:26.192Z,5
2022-09-14T01:17:26.098Z,7
2022-09-14T01:18:26.099Z,5
2022-09-14T01:20:26.105Z,5
2022-09-14T01:21:26.112Z,5
2022-09-14T01:22:26.107Z,5
2022-09-14T01:23:26.147Z,5
2022-09-14T01:25:26.119Z,6
2022-09-14T01:26:26.126Z,3
2022-09-14T01:27:26.105Z,6
2022-09-14T01:30:26.107Z,6
2022-09-14T01:31:26.131Z,6
2022-09-14T01:32:26.107Z,6
2022-09-14T01:34:26.125Z,5
2022-09-14T01:35:26.108Z,6
2022-09-14T01:36:26.661Z,6
2022-09-14T01:38:26.136Z,7
2022-09-14T01:39:26.110Z,4
2022-09-14T01:41:26.119Z,6
2022-09-14T01:42:26.120Z,6
2022-09-14T01:43:26.113Z,6
2022-09-14T01:44:26.110Z,4
2022-09-14T01:46:26.159Z,6
2022-09-14T01:48:26.127Z,5
2022-09-14T01:49:26.121Z,6
2022-09-14T01:51:26.124Z,5
2022-09-14T01:52:47.442Z,5
2022-09-14T01:53:26.118Z,5
2022-09-14T01:54:26.121Z,7
2022-09-14T01:55:26.131Z,7
2022-09-14T01:56:26.117Z,9
2022-09-14T01:57:26.125Z,5
2022-09-14T01:58:26.125Z,5
2022-09-14T01:59:26.128Z,5
2022-09-14T02:00:26.122Z,7
2022-09-14T02:03:26.123Z,7
2022-09-14T02:04:26.132Z,4
2022-09-14T02:05:26.141Z,7
2022-09-14T02:07:26.134Z,8
2022-09-14T02:08:26.126Z,5
2022-09-14T02:09:26.154Z,5
2022-09-14T02:10:26.129Z,9
2022-09-14T02:12:26.132Z,8
2022-09-14T02:13:26.125Z,4
2022-09-14T02:15:26.132Z,6
2022-09-14T02:17:26.130Z,6
2022-09-14T02:18:26.127Z,6
2022-09-14T02:19:26.137Z,7
2022-09-14T02:20:26.129Z,4
2022-09-14T02:21:26.139Z,5
2022-09-14T02:23:26.151Z,4
2022-09-14T02:24:26.141Z,5
2022-09-14T02:25:26.135Z,5
2022-09-14T02:28:26.131Z,6
2022-09-14T02:29:26.142Z,6
2022-09-14T02:30:26.142Z,6
2022-09-14T02:33:26.138Z,6
2022-09-14T02:34:26.137Z,6
2022-09-14T02:35:26.146Z,4
2022-09-14T02:36:26.193Z,6
2022-09-14T02:37:26.135Z,6
2022-09-14T02:38:26.144Z,5
2022-09-14T02:39:26.134Z,4
2022-09-14T02:41:26.137Z,6
2022-09-14T02:42:26.151Z,10
2022-09-14T02:44:26.142Z,6
2022-09-14T02:46:26.201Z,6
2022-09-14T02:47:26.141Z,7
2022-09-14T02:49:26.146Z,6
2022-09-14T02:50:26.143Z,6
2022-09-14T02:51:26.140Z,4
2022-09-14T02:55:26.144Z,8
2022-09-14T02:56:26.146Z,4
2022-09-14T02:58:26.149Z,6
2022-09-14T03:00:26.169Z,3
2022-09-14T03:01:26.264Z,6
2022-09-14T03:02:26.216Z,6
2022-09-14T03:03:26.213Z,5
2022-09-14T03:04:26.157Z,5
2022-09-14T03:05:26.155Z,6
2022-09-14T03:06:26.150Z,8
2022-09-14T03:07:26.150Z,5
2022-09-14T03:10:26.156Z,5
2022-09-14T03:11:26.267Z,7
2022-09-14T03:12:26.211Z,6
2022-09-14T03:13:26.152Z,6
2022-09-14T03:14:26.167Z,5
2022-09-14T03:15:26.186Z,5
2022-09-14T03:16:26.223Z,5
2022-09-14T03:17:26.167Z,5
2022-09-14T03:19:26.166Z,3
2022-09-14T03:20:26.173Z,3
2022-09-14T03:21:26.210Z,5
2022-09-14T03:22:26.170Z,6
2022-09-14T03:24:26.170Z,5
2022-09-14T03:25:26.165Z,5
2022-09-14T03:26:26.170Z,6
2022-09-14T03:27:26.167Z,10
2022-09-14T03:28:26.170Z,8
2022-09-14T03:30:26.168Z,7
2022-09-14T03:31:26.291Z,7
2022-09-14T03:33:26.175Z,5
2022-09-14T03:35:26.172Z,6
2022-09-14T03:36:26.174Z,4
2022-09-14T03:38:26.173Z,5
2022-09-14T03:40:26.263Z,8
2022-09-14T03:41:26.175Z,8
2022-09-14T03:42:26.202Z,6
2022-09-14T03:43:26.179Z,6
2022-09-14T03:44:26.237Z,8
2022-09-14T03:45:26.188Z,8
2022-09-14T03:47:26.176Z,4
2022-09-14T03:48:26.205Z,6
2022-09-14T03:49:26.174Z,5
2022-09-14T03:52:26.172Z,7
2022-09-14T03:53:26.177Z,8
2022-09-14T03:54:26.172Z,8
2022-09-14T03:56:26.180Z,5
2022-09-14T03:57:26.176Z,4
2022-09-14T03:58:26.186Z,6
2022-09-14T03:59:26.185Z,5
2022-09-14T04:01:26.283Z,6
2022-09-14T04:02:26.238Z,6
2022-09-14T04:03:26.184Z,5
2022-09-14T04:05:26.176Z,6
2022-09-14T04:06:26.188Z,6
2022-09-14T04:07:27.751Z,6
2022-09-14T04:08:26.187Z,9
2022-09-14T04:10:26.185Z,4
2022-09-14T04:12:26.185Z,4
2022-09-14T04:13:26.267Z,5
2022-09-14T04:15:26.194Z,5
2022-09-14T04:17:26.194Z,6
2022-09-14T04:18:26.205Z,5
2022-09-14T04:19:26.191Z,4
2022-09-14T04:20:26.202Z,4
2022-09-14T04:22:26.198Z,6
2022-09-14T04:23:26.194Z,4
2022-09-14T04:25:26.188Z,4
2022-09-14T04:27:26.197Z,7
2022-09-14T04:28:26.194Z,4
2022-09-14T04:29:26.191Z,4
2022-09-14T04:30:26.194Z,5
2022-09-14T04:31:26.370Z,6
2022-09-14T04:32:27.975Z,4
2022-09-14T04:33:26.193Z,5
2022-09-14T04:34:26.198Z,4
2022-09-14T04:35:26.199Z,6
2022-09-14T04:36:26.196Z,8
2022-09-14T04:39:26.260Z,5
2022-09-14T04:40:26.254Z,5
2022-09-14T04:41:26.198Z,5
2022-09-14T04:42:26.203Z,7
2022-09-14T04:44:26.238Z,5
2022-09-14T04:45:26.205Z,7
2022-09-14T04:46:26.311Z,4
2022-09-14T04:47:26.218Z,9
2022-09-14T04:49:26.202Z,9
2022-09-14T04:51:26.203Z,6
2022-09-14T04:54:26.211Z,5
2022-09-14T04:56:26.216Z,4
2022-09-14T04:58:26.224Z,7
2022-09-14T04:59:26.212Z,4
2022-09-14T05:01:26.274Z,5
2022-09-14T05:02:26.264Z,5
2022-09-14T05:03:26.225Z,4
2022-09-14T05:05:26.212Z,6
2022-09-14T05:06:26.283Z,4
2022-09-14T05:07:26.230Z,4
2022-09-14T05:10:26.217Z,7
2022-09-14T05:11:26.216Z,7
2022-09-14T05:12:26.223Z,5
2022-09-14T05:15:26.331Z,7
2022-09-14T05:16:26.347Z,4
2022-09-14T05:17:26.220Z,6
2022-09-14T05:18:26.232Z,7
2022-09-14T05:19:26.227Z,7
2022-09-14T05:20:26.222Z,7
2022-09-14T05:21:26.223Z,6
2022-09-14T05:23:26.225Z,6
2022-09-14T05:24:26.285Z,6
2022-09-14T05:26:26.227Z,5
2022-09-14T05:27:26.230Z,14
2022-09-14T05:29:26.232Z,7
2022-09-14T05:32:26.227Z,7
2022-09-14T05:33:26.285Z,5
2022-09-14T05:34:26.237Z,5
2022-09-14T05:36:26.229Z,6
2022-09-14T05:37:26.230Z,6
2022-09-14T05:38:26.239Z,6
2022-09-14T05:39:26.237Z,6
2022-09-14T05:40:26.288Z,6
2022-09-14T05:41:26.226Z,6
2022-09-14T05:42:26.293Z,6
2022-09-14T05:43:26.240Z,6
2022-09-14T05:44:26.237Z,8
2022-09-14T05:47:26.241Z,5
2022-09-14T05:48:26.259Z,9
2022-09-14T05:49:26.231Z,8
2022-09-14T05:51:26.232Z,5
2022-09-14T05:53:26.239Z,8
2022-09-14T05:54:26.239Z,10
2022-09-14T05:55:26.255Z,4
2022-09-14T05:56:26.261Z,4
2022-09-14T05:58:26.241Z,3
2022-09-14T05:59:26.246Z,8
2022-09-14T06:00:26.292Z,6
2022-09-14T06:01:26.346Z,6
2022-09-14T06:03:26.246Z,5
2022-09-14T06:04:26.250Z,6
2022-09-14T06:05:26.330Z,6
2022-09-14T06:06:26.246Z,4
2022-09-14T06:09:29.987Z,5
2022-09-14T06:10:26.246Z,6
2022-09-14T06:11:26.249Z,7
2022-09-14T06:12:26.249Z,7
2022-09-14T06:14:26.255Z,7
2022-09-14T06:15:26.254Z,9
2022-09-14T06:16:26.255Z,6
2022-09-14T06:17:26.374Z,6
2022-09-14T06:19:26.511Z,6
2022-09-14T06:20:26.339Z,6
2022-09-14T06:21:26.256Z,9
2022-09-14T06:22:26.253Z,9
2022-09-14T06:24:26.264Z,7
2022-09-14T06:25:26.256Z,6
2022-09-14T06:26:26.252Z,8
2022-09-14T06:27:26.257Z,7
2022-09-14T06:29:26.258Z,6
2022-09-14T06:30:26.293Z,7
2022-09-14T06:31:26.265Z,8
2022-09-14T06:32:26.264Z,8
2022-09-14T06:33:26.256Z,5
2022-09-14T06:34:26.261Z,5
2022-09-14T06:35:26.256Z,5
2022-09-14T06:36:26.257Z,5
2022-09-14T06:37:26.254Z,7
2022-09-14T06:38:26.262Z,8
2022-09-14T06:40:26.335Z,5
2022-09-14T06:41:26.264Z,5
2022-09-14T06:42:26.260Z,4
2022-09-14T06:43:26.270Z,4
2022-09-14T06:45:26.261Z,8
2022-09-14T06:46:26.264Z,8
2022-09-14T06:47:26.267Z,5
2022-09-14T06:48:26.284Z,5
2022-09-14T06:51:26.264Z,8
2022-09-14T06:52:27.865Z,6
2022-09-14T06:53:26.269Z,6
2022-09-14T06:56:26.273Z,7
2022-09-14T06:57:26.270Z,10
2022-09-14T06:58:26.284Z,9
2022-09-14T07:01:26.269Z,6
2022-09-14T07:02:26.353Z,6
2022-09-14T07:03:26.273Z,6
2022-09-14T07:05:26.280Z,5
2022-09-14T07:06:26.281Z,9
2022-09-14T07:07:26.277Z,9
2022-09-14T07:08:26.286Z,5
2022-09-14T07:09:26.278Z,5
2022-09-14T07:10:26.279Z,5
2022-09-14T07:11:26.280Z,5
2022-09-14T07:12:26.279Z,8
2022-09-14T07:13:48.445Z,6
2022-09-14T07:16:26.282Z,7
2022-09-14T07:17:26.275Z,8
2022-09-14T07:18:26.279Z,5
2022-09-14T07:19:26.397Z,7
2022-09-14T07:21:26.349Z,4
2022-09-14T07:22:26.277Z,4
2022-09-14T07:23:26.286Z,8
2022-09-14T07:24:26.291Z,7
2022-09-14T07:25:26.310Z,6
2022-09-14T07:26:26.283Z,6
2022-09-14T07:27:26.289Z,5
2022-09-14T07:28:26.283Z,9
2022-09-14T07:29:26.287Z,8
2022-09-14T07:30:26.340Z,6
2022-09-14T07:31:26.403Z,6
2022-09-14T07:33:26.333Z,7
2022-09-14T07:34:26.288Z,7
2022-09-14T07:35:26.285Z,7
2022-09-14T07:38:48.194Z,5
2022-09-14T07:39:26.293Z,7
2022-09-14T07:43:26.288Z,5
2022-09-14T07:44:26.292Z,5
2022-09-14T07:45:26.295Z,5
2022-09-14T07:47:26.290Z,5
2022-09-14T07:48:26.356Z,7
2022-09-14T07:49:26.299Z,7
2022-09-14T07:50:26.325Z,7
2022-09-14T07:53:26.359Z,11
2022-09-14T07:54:26.291Z,8
2022-09-14T07:55:26.326Z,7
2022-09-14T07:56:26.294Z,7
2022-09-14T07:57:39.633Z,6
2022-09-14T07:58:26.313Z,7
2022-09-14T07:59:37.814Z,8
2022-09-14T08:00:26.295Z,7
2022-09-14T08:02:26.356Z,8
2022-09-14T08:03:26.297Z,6
2022-09-14T08:04:26.302Z,7
2022-09-14T08:05:26.297Z,6
2022-09-14T08:06:26.296Z,7
2022-09-14T08:07:26.301Z,5
2022-09-14T08:09:26.302Z,7
2022-09-14T08:10:26.298Z,8
2022-09-14T08:12:26.308Z,6
2022-09-14T08:14:26.311Z,10
2022-09-14T08:17:26.311Z,5
2022-09-14T08:18:26.315Z,6
2022-09-14T08:19:26.307Z,7
2022-09-14T08:22:26.309Z,9
2022-09-14T08:23:26.598Z,5
2022-09-14T08:24:26.299Z,5
2022-09-14T08:27:26.304Z,8
2022-09-14T08:28:26.308Z,8
2022-09-14T08:32:26.315Z,9
2022-09-14T08:33:26.314Z,12
2022-09-14T08:35:46.826Z,7
2022-09-14T08:37:26.323Z,7
2022-09-14T08:38:26.318Z,8
2022-09-14T08:39:26.312Z,6
2022-09-14T08:40:26.402Z,9
2022-09-14T08:42:26.391Z,7
2022-09-14T08:43:26.333Z,7
2022-09-14T08:44:26.321Z,8
2022-09-14T08:45:26.352Z,9
2022-09-14T08:47:26.316Z,8
2022-09-14T08:48:26.324Z,8
2022-09-14T08:49:26.325Z,5
2022-09-14T08:52:26.354Z,8
2022-09-14T08:53:26.320Z,8
2022-09-14T08:54:26.325Z,7
2022-09-14T08:55:26.327Z,7
2022-09-14T08:57:26.325Z,8
2022-09-14T08:58:26.313Z,9
2022-09-14T08:59:26.333Z,9
2022-09-14T09:00:26.369Z,9
2022-09-14T09:02:26.325Z,9
2022-09-14T09:03:26.378Z,9
2022-09-14T09:04:26.326Z,7
2022-09-14T09:05:26.324Z,6
2022-09-14T09:08:26.328Z,6
2022-09-14T09:09:26.338Z,7
2022-09-14T09:10:26.329Z,6
2022-09-14T09:11:26.326Z,8
2022-09-14T09:12:26.339Z,6
2022-09-14T09:13:26.327Z,9
2022-09-14T09:14:26.329Z,9
2022-09-14T09:17:26.338Z,7
2022-09-14T09:18:26.378Z,8
2022-09-14T09:19:28.663Z,8
2022-09-14T09:23:26.355Z,8
2022-09-14T09:24:26.336Z,7
2022-09-14T09:25:26.326Z,7
2022-09-14T09:26:26.336Z,7
2022-09-14T09:28:26.333Z,6
2022-09-14T09:29:26.332Z,7
2022-09-14T09:30:26.330Z,9
2022-09-14T09:31:26.375Z,6
2022-09-14T09:32:26.342Z,8
2022-09-14T09:33:26.336Z,10
2022-09-14T09:34:26.348Z,7
2022-09-14T09:35:26.343Z,5
2022-09-14T09:36:26.339Z,6
2022-09-14T09:37:26.338Z,3
2022-09-14T09:38:26.347Z,8
2022-09-14T09:39:26.340Z,5
2022-09-14T09:40:26.404Z,7
2022-09-14T09:41:26.347Z,7
2022-09-14T09:42:26.344Z,5
2022-09-14T09:44:26.345Z,8
2022-09-14T09:46:26.414Z,6
2022-09-14T09:49:26.339Z,6
2022-09-14T09:51:26.345Z,7
2022-09-14T09:52:26.353Z,7
2022-09-14T09:53:26.346Z,7
2022-09-14T09:55:26.352Z,7
2022-09-14T09:56:26.340Z,5
2022-09-14T09:58:26.346Z,7
2022-09-14T10:00:26.343Z,9
2022-09-14T10:01:26.518Z,6
2022-09-14T10:02:26.440Z,7
2022-09-14T10:04:26.347Z,7
2022-09-14T10:05:26.342Z,7
2022-09-14T10:06:26.365Z,7
2022-09-14T10:07:26.348Z,8
2022-09-14T10:08:26.359Z,8
2022-09-14T10:09:26.348Z,6
2022-09-14T10:11:26.347Z,6
2022-09-14T10:12:26.360Z,6
2022-09-14T10:13:26.350Z,6
2022-09-14T10:14:26.360Z,8
2022-09-14T10:17:26.357Z,6
2022-09-14T10:18:26.362Z,7
2022-09-14T10:19:26.357Z,7
2022-09-14T10:22:26.835Z,6
2022-09-14T10:23:26.363Z,6
2022-09-14T10:25:26.443Z,6
2022-09-14T10:27:26.361Z,8
2022-09-14T10:28:26.358Z,8
2022-09-14T10:30:26.359Z,6
2022-09-14T10:32:26.355Z,8
2022-09-14T10:33:26.363Z,8
2022-09-14T10:37:26.362Z,9
2022-09-14T10:39:26.527Z,7
2022-09-14T10:40:26.460Z,10
2022-09-14T10:42:26.373Z,7
2022-09-14T10:43:26.372Z,8
2022-09-14T10:44:26.369Z,8
2022-09-14T10:45:26.366Z,7
2022-09-14T10:46:26.442Z,10
2022-09-14T10:48:26.372Z,12
2022-09-14T10:49:26.380Z,10
2022-09-14T10:50:26.386Z,14
2022-09-14T10:51:26.396Z,14
2022-09-14T10:53:26.387Z,14
2022-09-14T10:54:26.372Z,10
2022-09-14T10:55:26.376Z,10
2022-09-14T10:56:26.503Z,11
2022-09-14T10:59:26.372Z,10
2022-09-14T11:00:26.386Z,13
2022-09-14T11:01:26.397Z,10
2022-09-14T11:04:26.402Z,9
2022-09-14T11:05:26.378Z,9
2022-09-14T11:06:26.382Z,7
2022-09-14T11:08:26.377Z,8
2022-09-14T11:10:26.376Z,10
2022-09-14T11:11:26.374Z,7
2022-09-14T11:13:26.391Z,7
2022-09-14T11:14:26.442Z,6
2022-09-14T11:15:26.386Z,6
2022-09-14T11:16:26.461Z,7
2022-09-14T11:18:26.376Z,5
2022-09-14T11:19:26.386Z,7
2022-09-14T11:20:26.392Z,7
2022-09-14T11:21:26.384Z,6
2022-09-14T11:22:26.383Z,6
2022-09-14T11:24:26.503Z,5
2022-09-14T11:25:26.388Z,5
2022-09-14T11:26:26.382Z,10
2022-09-14T11:27:26.509Z,7
2022-09-14T11:29:26.383Z,7
2022-09-14T11:30:26.395Z,8
2022-09-14T11:31:26.517Z,7
2022-09-14T11:32:26.397Z,8
2022-09-14T11:36:26.446Z,5
2022-09-14T11:37:26.386Z,5
2022-09-14T11:39:26.407Z,7
2022-09-14T11:40:26.519Z,4
2022-09-14T11:41:26.396Z,5
2022-09-14T11:42:26.401Z,5
2022-09-14T11:43:26.400Z,4
2022-09-14T11:44:26.418Z,5
2022-09-14T11:46:26.452Z,4
2022-09-14T11:47:26.400Z,6
2022-09-14T11:48:42.247Z,4
2022-09-14T11:50:26.400Z,4
2022-09-14T11:51:26.394Z,5
2022-09-14T11:52:26.403Z,5
2022-09-14T11:55:26.402Z,6
2022-09-14T11:56:26.686Z,5
2022-09-14T11:57:26.400Z,6
2022-09-14T11:58:26.468Z,7
2022-09-14T11:59:27.791Z,8
2022-09-14T12:01:26.406Z,7
2022-09-14T12:02:26.484Z,6
2022-09-14T12:04:26.407Z,5
2022-09-14T12:06:26.400Z,3
2022-09-14T12:07:26.402Z,9
2022-09-14T12:09:26.414Z,6
2022-09-14T12:10:26.417Z,7
2022-09-14T12:11:26.403Z,3
2022-09-14T12:12:26.399Z,3
2022-09-14T12:14:26.409Z,3
2022-09-14T12:15:26.413Z,5
2022-09-14T12:17:39.490Z,4
2022-09-14T12:18:26.405Z,4
2022-09-14T12:19:26.421Z,4
2022-09-14T12:20:26.414Z,4
2022-09-14T12:22:26.415Z,3
2022-09-14T12:24:26.421Z,3
2022-09-14T12:25:26.417Z,3
2022-09-14T12:27:26.421Z,6
2022-09-14T12:28:26.416Z,4
2022-09-14T12:30:26.421Z,5
2022-09-14T12:32:26.415Z,6
2022-09-14T12:33:26.430Z,5
2022-09-14T12:35:26.428Z,3
2022-09-14T12:37:26.422Z,7
2022-09-14T12:38:26.413Z,4
2022-09-14T12:40:26.494Z,6
2022-09-14T12:41:26.430Z,5
2022-09-14T12:42:26.420Z,5
2022-09-14T12:43:26.469Z,4
2022-09-14T12:45:26.425Z,4
2022-09-14T12:47:26.426Z,4
2022-09-14T12:48:26.427Z,5
2022-09-14T12:50:26.423Z,2
2022-09-14T12:52:26.478Z,4
2022-09-14T12:55:26.426Z,4
2022-09-14T12:56:26.425Z,4
2022-09-14T12:57:26.427Z,2
2022-09-14T12:58:26.427Z,4
2022-09-14T13:00:26.555Z,3
2022-09-14T13:01:26.580Z,4
2022-09-14T13:04:26.447Z,4
2022-09-14T13:05:26.434Z,3
2022-09-14T13:06:26.439Z,4
2022-09-14T13:07:26.434Z,5
2022-09-14T13:08:26.434Z,4
2022-09-14T13:09:26.436Z,5
2022-09-14T13:11:26.434Z,3
2022-09-14T13:12:26.494Z,4
2022-09-14T13:14:26.442Z,3
2022-09-14T13:15:26.441Z,4
2022-09-14T13:16:26.479Z,2
2022-09-14T13:17:26.443Z,4
2022-09-14T13:19:26.439Z,3
2022-09-14T13:21:26.491Z,3
2022-09-14T13:22:26.450Z,3
2022-09-14T13:25:26.533Z,4
2022-09-14T13:26:26.447Z,3
2022-09-14T13:27:26.447Z,4
2022-09-14T13:28:26.450Z,4
2022-09-14T13:29:26.446Z,4
2022-09-14T13:30:26.503Z,3
2022-09-14T13:31:26.509Z,3
2022-09-14T13:32:26.497Z,3
2022-09-14T13:33:26.454Z,3
2022-09-14T13:35:26.446Z,4
2022-09-14T13:36:26.459Z,5
2022-09-14T13:37:26.440Z,3
2022-09-14T13:38:26.443Z,4
2022-09-14T13:40:26.511Z,5
2022-09-14T13:41:26.441Z,3
2022-09-14T13:42:26.446Z,6
2022-09-14T13:43:26.446Z,4
2022-09-14T13:45:26.446Z,5
2022-09-14T13:46:26.550Z,4
2022-09-14T13:47:26.447Z,6
2022-09-14T13:48:26.451Z,4
2022-09-14T13:49:26.445Z,3
2022-09-14T13:50:26.453Z,5
2022-09-14T13:51:26.465Z,4
2022-09-14T13:52:38.978Z,4
2022-09-14T13:53:26.451Z,4
2022-09-14T13:54:26.456Z,3
2022-09-14T13:55:26.451Z,5
2022-09-14T13:56:26.448Z,3
2022-09-14T13:58:26.454Z,4
2022-09-14T13:59:26.457Z,3
2022-09-14T14:01:26.556Z,5
2022-09-14T14:02:26.554Z,6
2022-09-14T14:03:26.453Z,4
2022-09-14T14:04:26.469Z,5
2022-09-14T14:06:26.452Z,5
2022-09-14T14:08:26.454Z,5
2022-09-14T14:09:26.467Z,6
2022-09-14T14:11:26.455Z,6
2022-09-14T14:12:26.464Z,5
2022-09-14T14:13:26.497Z,5
2022-09-14T14:14:30.910Z,5
2022-09-14T14:15:26.457Z,4
2022-09-14T14:16:26.566Z,5
2022-09-14T14:17:26.468Z,5
2022-09-14T14:18:26.461Z,7
2022-09-14T14:19:26.470Z,5
2022-09-14T14:22:26.462Z,5
2022-09-14T14:23:26.469Z,5
2022-09-14T14:24:26.459Z,4
2022-09-14T14:27:26.479Z,5
2022-09-14T14:28:26.469Z,6
2022-09-14T14:29:26.463Z,5
2022-09-14T14:31:26.543Z,5
2022-09-14T14:32:26.469Z,5
2022-09-14T14:33:26.563Z,6
2022-09-14T14:34:26.468Z,7
2022-09-14T14:35:26.500Z,5
2022-09-14T14:36:26.470Z,5
2022-09-14T14:37:26.478Z,5
2022-09-14T14:38:26.474Z,8
2022-09-14T14:39:26.474Z,5
2022-09-14T14:40:26.706Z,6
2022-09-14T14:43:26.473Z,5
2022-09-14T14:44:26.476Z,6
2022-09-14T14:45:26.885Z,6
2022-09-14T14:48:26.476Z,6
2022-09-14T14:49:26.479Z,5
2022-09-14T14:50:26.523Z,6
2022-09-14T14:52:26.479Z,7
2022-09-14T14:53:26.479Z,6
2022-09-14T14:54:26.479Z,7
2022-09-14T14:55:26.474Z,4
2022-09-14T14:56:26.478Z,7
2022-09-14T14:58:26.481Z,5
2022-09-14T14:59:26.535Z,7
2022-09-14T15:00:26.496Z,6
2022-09-14T15:02:26.483Z,5
2022-09-14T15:04:26.516Z,7
2022-09-14T15:05:26.480Z,5
2022-09-14T15:06:26.551Z,6
2022-09-14T15:07:27.260Z,7
2022-09-14T15:08:26.482Z,6
2022-09-14T15:10:26.486Z,6
2022-09-14T15:11:26.492Z,6
2022-09-14T15:12:26.488Z,6
2022-09-14T15:13:26.546Z,7
2022-09-14T15:15:26.524Z,7
2022-09-14T15:17:26.489Z,6
2022-09-14T15:20:26.495Z,6
2022-09-14T15:21:26.489Z,8
2022-09-14T15:22:26.487Z,6
2022-09-14T15:24:26.500Z,8
2022-09-14T15:25:26.495Z,8
2022-09-14T15:26:26.495Z,7
2022-09-14T15:27:26.495Z,7
2022-09-14T15:28:26.491Z,6
2022-09-14T15:30:26.498Z,8
2022-09-14T15:31:26.561Z,7
2022-09-14T15:32:26.491Z,6
2022-09-14T15:33:26.490Z,8
2022-09-14T15:35:26.518Z,9
2022-09-14T15:36:26.494Z,8
2022-09-14T15:37:26.503Z,7
2022-09-14T15:39:26.503Z,8
2022-09-14T15:40:26.553Z,10
2022-09-14T15:41:26.505Z,9
2022-09-14T15:42:26.501Z,10
2022-09-14T15:43:26.499Z,8
2022-09-14T15:44:26.500Z,7
2022-09-14T15:45:26.581Z,8
2022-09-14T15:46:26.496Z,10
2022-09-14T15:47:26.505Z,7
2022-09-14T15:48:26.506Z,7
2022-09-14T15:51:26.510Z,6
2022-09-14T15:52:26.505Z,6
2022-09-14T15:53:26.578Z,7
2022-09-14T15:56:26.512Z,7
2022-09-14T15:57:26.511Z,6
2022-09-14T15:58:26.501Z,5
2022-09-14T15:59:26.515Z,5
2022-09-14T16:00:26.516Z,5
2022-09-14T16:01:26.569Z,7
2022-09-14T16:02:26.746Z,7
2022-09-14T16:04:26.510Z,8
2022-09-14T16:05:26.523Z,6
2022-09-14T16:07:26.512Z,5
2022-09-14T16:08:26.514Z,6
2022-09-14T16:09:26.560Z,5
2022-09-14T16:12:26.515Z,7
2022-09-14T16:13:26.518Z,10
2022-09-14T16:17:26.519Z,8
2022-09-14T16:18:26.535Z,5
2022-09-14T16:19:26.520Z,5
2022-09-14T16:20:26.513Z,7
2022-09-14T16:22:26.518Z,5
2022-09-14T16:23:26.559Z,6
2022-09-14T16:24:26.518Z,6
2022-09-14T16:25:26.527Z,5
2022-09-14T16:27:26.525Z,7
2022-09-14T16:28:26.593Z,8
2022-09-14T16:29:26.527Z,6
2022-09-14T16:30:26.528Z,6
2022-09-14T16:32:26.532Z,7
2022-09-14T16:33:26.535Z,5
2022-09-14T16:34:26.531Z,5
2022-09-14T16:35:26.598Z,5
2022-09-14T16:37:26.552Z,5
2022-09-14T16:38:26.532Z,6
2022-09-14T16:39:26.529Z,4
2022-09-14T16:40:26.577Z,8
2022-09-14T16:41:26.530Z,5
2022-09-14T16:42:26.572Z,5
2022-09-14T16:43:26.576Z,5
2022-09-14T16:44:26.531Z,6
2022-09-14T16:45:26.595Z,7
2022-09-14T16:46:26.525Z,5
2022-09-14T16:47:26.536Z,6
2022-09-14T16:48:26.526Z,7
2022-09-14T16:49:28.115Z,5
2022-09-14T16:50:26.535Z,7
2022-09-14T16:51:26.530Z,6
2022-09-14T16:54:26.608Z,6
2022-09-14T16:56:26.533Z,6
2022-09-14T16:58:26.540Z,6
2022-09-14T16:59:26.546Z,8
2022-09-14T17:00:26.541Z,5
2022-09-14T17:01:26.614Z,6
2022-09-14T17:04:26.537Z,6
2022-09-14T17:05:26.543Z,5
2022-09-14T17:06:26.538Z,6
2022-09-14T17:07:26.539Z,5
2022-09-14T17:08:26.565Z,6
2022-09-14T17:09:26.547Z,6
2022-09-14T17:10:26.538Z,6
2022-09-14T17:11:26.539Z,6
2022-09-14T17:14:26.538Z,7
2022-09-14T17:15:26.541Z,5
2022-09-14T17:16:26.611Z,4
2022-09-14T17:17:26.613Z,5
2022-09-14T17:19:26.552Z,5
2022-09-14T17:20:26.543Z,4
2022-09-14T17:21:26.554Z,4
2022-09-14T17:22:26.559Z,5
2022-09-14T17:25:26.549Z,4
2022-09-14T17:26:26.551Z,5
2022-09-14T17:27:26.547Z,6
2022-09-14T17:30:26.554Z,5
2022-09-14T17:31:26.589Z,5
2022-09-14T17:32:26.555Z,4
2022-09-14T17:34:26.553Z,4
2022-09-14T17:36:26.621Z,3
2022-09-14T17:37:26.553Z,5
2022-09-14T17:39:27.056Z,5
2022-09-14T17:41:26.554Z,5
2022-09-14T17:42:26.551Z,4
2022-09-14T17:44:26.580Z,4
2022-09-14T17:46:26.595Z,5
2022-09-14T17:47:26.560Z,6
2022-09-14T17:48:26.560Z,5
2022-09-14T17:49:26.561Z,6
2022-09-14T17:51:26.563Z,7
2022-09-14T17:52:26.564Z,5
2022-09-14T17:54:26.565Z,6
2022-09-14T17:56:27.327Z,7
2022-09-14T17:57:26.566Z,5
2022-09-14T17:59:26.565Z,5
2022-09-14T18:00:26.574Z,6
2022-09-14T18:01:26.612Z,5
2022-09-14T18:02:26.565Z,9
2022-09-14T18:04:26.620Z,5
2022-09-14T18:05:26.566Z,5
2022-09-14T18:07:26.572Z,6
2022-09-14T18:10:26.588Z,8
2022-09-14T18:12:26.573Z,5
2022-09-14T18:13:26.569Z,5
2022-09-14T18:14:26.571Z,5
2022-09-14T18:16:26.660Z,7
2022-09-14T18:17:26.582Z,5
2022-09-14T18:18:26.575Z,9
2022-09-14T18:19:26.582Z,7
2022-09-14T18:20:26.568Z,7
2022-09-14T18:21:26.579Z,6
2022-09-14T18:22:26.589Z,8
2022-09-14T18:23:26.572Z,9
2022-09-14T18:24:26.573Z,8
2022-09-14T18:25:26.575Z,8
2022-09-14T18:26:26.582Z,6
2022-09-14T18:27:26.581Z,6
2022-09-14T18:28:26.581Z,7
2022-09-14T18:29:26.579Z,6
2022-09-14T18:30:26.578Z,8
2022-09-14T18:31:26.764Z,9
2022-09-14T18:33:26.585Z,6
2022-09-14T18:34:26.580Z,6
2022-09-14T18:35:26.582Z,5
2022-09-14T18:38:26.582Z,6
2022-09-14T18:39:26.669Z,7
2022-09-14T18:40:26.657Z,6
2022-09-14T18:43:26.582Z,5
2022-09-14T18:44:26.580Z,8
2022-09-14T18:45:26.608Z,7
2022-09-14T18:46:28.416Z,8
2022-09-14T18:48:26.581Z,9
2022-09-14T18:49:26.586Z,11
2022-09-14T18:51:26.587Z,14
2022-09-14T18:52:26.591Z,10
2022-09-14T18:53:26.590Z,10
2022-09-14T18:54:27.846Z,11
2022-09-14T18:56:26.595Z,11
2022-09-14T18:57:26.597Z,12
2022-09-14T18:59:26.594Z,8
2022-09-14T19:01:26.745Z,13
2022-09-14T19:02:26.683Z,9
2022-09-14T19:04:26.593Z,10
2022-09-14T19:05:26.594Z,11
2022-09-14T19:06:26.595Z,9
2022-09-14T19:07:26.657Z,10
2022-09-14T19:11:26.610Z,10
2022-09-14T19:12:26.705Z,11
2022-09-14T19:13:26.603Z,13
2022-09-14T19:17:26.600Z,12
2022-09-14T19:18:26.601Z,10
2022-09-14T19:22:26.602Z,11
2022-09-14T19:23:26.608Z,13
2022-09-14T19:25:26.601Z,9
2022-09-14T19:26:26.606Z,11
2022-09-14T19:27:26.659Z,13
2022-09-14T19:28:26.606Z,13
2022-09-14T19:30:26.608Z,12
2022-09-14T19:31:26.702Z,9
2022-09-14T19:32:26.612Z,11
2022-09-14T19:33:26.603Z,8
2022-09-14T19:35:26.627Z,12
2022-09-14T19:37:26.616Z,10
2022-09-14T19:38:26.609Z,11
2022-09-14T19:40:26.699Z,10
2022-09-14T19:41:26.617Z,13
2022-09-14T19:42:26.614Z,9
2022-09-14T19:43:26.725Z,11
2022-09-14T19:44:26.625Z,12
2022-09-14T19:45:26.662Z,10
2022-09-14T19:47:26.614Z,9
2022-09-14T19:48:26.611Z,10
2022-09-14T19:49:26.615Z,14
2022-09-14T19:50:26.633Z,10
2022-09-14T19:51:26.619Z,13
2022-09-14T19:52:26.622Z,11
2022-09-14T19:53:26.625Z,12
2022-09-14T19:54:26.616Z,11
2022-09-14T19:56:26.625Z,9
2022-09-14T19:58:26.619Z,14
2022-09-14T19:59:26.620Z,10
2022-09-14T20:01:26.740Z,11
2022-09-14T20:03:26.618Z,9
2022-09-14T20:04:26.627Z,11
2022-09-14T20:06:26.627Z,11
2022-09-14T20:08:26.628Z,12
2022-09-14T20:09:26.625Z,11
2022-09-14T20:10:26.620Z,13
2022-09-14T20:11:26.628Z,10
2022-09-14T20:13:26.625Z,11
2022-09-14T20:14:26.649Z,13
2022-09-14T20:15:26.626Z,12
2022-09-14T20:17:26.630Z,14
2022-09-14T20:19:26.633Z,11
2022-09-14T20:20:26.634Z,12